Time;durP1;ratioP1;P1;durP2;ratioP2;P2;SDS_P1;SDS_P2;PMS_P1;PMS_P2;Temp;Humidity;BMP_temperature;BMP_pressure;BME280_temperature;BME280_humidity;BME280_pressure;Samples;Min_cycle;Max_cycle;Signal;HPM_P1;HPM_P2
2022/05/18 00:00:18;;;;;;;7.78;4.85;;;19.90;97.00;;;;;;5044964;28;20056;-38
2022/05/18 00:02:44;;;;;;;5.35;4.45;;;19.90;97.00;;;;;;5043689;28;20053;-41
2022/05/18 00:05:10;;;;;;;6.15;4.45;;;19.90;97.10;;;;;;5045296;28;20025;-42
2022/05/18 00:07:36;;;;;;;3.83;3.50;;;19.80;97.20;;;;;;5048451;28;20036;-42
2022/05/18 00:10:02;;;;;;;7.53;3.95;;;19.80;97.20;;;;;;5048308;28;20033;-43
2022/05/18 00:12:28;;;;;;;7.78;3.78;;;19.80;97.30;;;;;;5048000;28;20504;-42
2022/05/18 00:14:54;;;;;;;4.60;3.95;;;19.70;97.30;;;;;;5048844;28;20040;-42
2022/05/18 00:17:19;;;;;;;5.30;4.32;;;19.70;97.40;;;;;;5048347;28;20017;-41
2022/05/18 00:19:45;;;;;;;5.25;4.47;;;19.70;97.40;;;;;;5048348;28;20047;-39
2022/05/18 00:22:11;;;;;;;4.93;4.10;;;19.70;97.50;;;;;;5048418;28;20108;-41
2022/05/18 00:24:37;;;;;;;6.28;4.40;;;19.60;97.50;;;;;;5047944;28;20306;-41
2022/05/18 00:27:03;;;;;;;7.30;4.35;;;19.60;97.60;;;;;;5049289;28;20029;-39
2022/05/18 00:29:31;;;;;;;4.88;4.00;;;19.60;97.70;;;;;;5048165;28;20460;-36
2022/05/18 00:31:57;;;;;;;7.40;4.05;;;19.50;97.70;;;;;;5047640;28;20063;-39
2022/05/18 00:34:23;;;;;;;8.45;4.85;;;19.50;97.80;;;;;;5047460;28;20027;-40
2022/05/18 00:36:49;;;;;;;7.13;5.13;;;19.50;97.90;;;;;;5048104;28;20052;-41
2022/05/18 00:39:14;;;;;;;6.80;4.93;;;19.50;98.00;;;;;;5048211;28;20056;-41
2022/05/18 00:41:40;;;;;;;7.35;4.45;;;19.40;98.00;;;;;;5048386;28;20087;-41
2022/05/18 00:44:06;;;;;;;6.57;4.50;;;19.40;98.10;;;;;;5047197;28;20029;-43
2022/05/18 00:46:32;;;;;;;7.07;4.70;;;19.40;98.20;;;;;;5047840;28;20530;-41
2022/05/18 00:48:57;;;;;;;5.63;5.03;;;19.30;98.20;;;;;;5048651;28;20024;-41
2022/05/18 00:51:39;;;;;;;7.53;5.07;;;19.30;98.30;;;;;;5047202;28;20025;-41
2022/05/18 00:54:04;;;;;;;5.38;4.88;;;19.30;98.50;;;;;;5048135;28;20032;-41
2022/05/18 00:56:54;;;;;;;11.05;5.90;;;19.30;98.50;;;;;;5047416;28;20036;-41
2022/05/18 00:59:30;;;;;;;6.53;5.40;;;19.30;98.60;;;;;;5046455;28;20041;-42
2022/05/18 01:01:58;;;;;;;6.63;5.10;;;19.20;98.70;;;;;;5048451;28;20029;-41
2022/05/18 01:04:26;;;;;;;6.88;5.25;;;19.20;98.80;;;;;;5047479;28;20111;-41
2022/05/18 01:06:58;;;;;;;6.93;5.53;;;19.20;98.80;;;;;;5047392;28;20029;-40
2022/05/18 01:09:35;;;;;;;6.53;5.68;;;19.20;98.90;;;;;;5047523;28;20021;-40
2022/05/18 01:12:02;;;;;;;7.82;5.35;;;19.10;98.90;;;;;;5047629;28;20040;-40
2022/05/18 01:14:32;;;;;;;6.25;4.68;;;19.10;99.00;;;;;;5046779;28;20477;-40
2022/05/18 01:16:58;;;;;;;10.85;5.80;;;19.10;99.00;;;;;;5047003;28;20056;-41
2022/05/18 01:19:36;;;;;;;6.45;5.80;;;19.10;99.10;;;;;;5046460;28;20028;-41
2022/05/18 01:22:18;;;;;;;7.43;5.68;;;19.10;99.10;;;;;;5048147;28;20044;-42
2022/05/18 01:25:08;;;;;;;6.78;5.85;;;19.10;99.20;;;;;;5047042;28;20497;-42
2022/05/18 01:27:34;;;;;;;6.93;5.18;;;19.10;99.30;;;;;;5046520;28;20031;-40
2022/05/18 01:30:00;;;;;;;8.00;5.43;;;19.10;99.30;;;;;;5047770;28;20070;-40
2022/05/18 01:32:34;;;;;;;6.90;5.90;;;19.00;99.30;;;;;;5046948;28;20056;-41
2022/05/18 01:34:59;;;;;;;8.68;5.60;;;19.10;99.50;;;;;;5046689;28;20021;-42
2022/05/18 01:37:24;;;;;;;7.47;5.57;;;19.00;99.50;;;;;;5046791;28;20532;-42
2022/05/18 01:39:53;;;;;;;5.15;4.65;;;19.00;99.60;;;;;;5047517;28;20025;-41
2022/05/18 01:42:35;;;;;;;7.78;5.43;;;19.00;99.60;;;;;;5046158;28;20029;-43
2022/05/18 01:45:00;;;;;;;8.05;5.30;;;18.90;99.70;;;;;;5047238;28;20422;-41
2022/05/18 01:47:32;;;;;;;5.68;4.20;;;18.90;99.70;;;;;;5046031;28;20524;-42
2022/05/18 01:50:00;;;;;;;6.75;5.30;;;19.00;99.70;;;;;;5047112;28;20017;-40
2022/05/18 01:52:25;;;;;;;7.30;5.47;;;18.90;99.80;;;;;;5046232;28;20025;-41
2022/05/18 01:54:51;;;;;;;6.63;4.60;;;18.90;99.80;;;;;;5046445;28;20029;-41
2022/05/18 01:57:16;;;;;;;30.25;7.80;;;18.90;99.90;;;;;;5046372;28;20052;-42
2022/05/18 01:59:42;;;;;;;8.43;5.82;;;18.90;99.90;;;;;;5046352;28;20052;-41
2022/05/18 02:02:10;;;;;;;8.30;5.63;;;18.90;99.90;;;;;;5046563;28;20048;-42
2022/05/18 02:04:36;;;;;;;5.88;4.63;;;18.90;99.90;;;;;;5046625;28;20071;-42
2022/05/18 02:07:03;;;;;;;7.47;4.95;;;18.90;99.90;;;;;;5046350;28;20099;-40
2022/05/18 02:09:29;;;;;;;5.40;4.78;;;18.90;99.90;;;;;;5045373;28;20572;-41
2022/05/18 02:11:55;;;;;;;8.05;5.28;;;18.90;99.90;;;;;;5046589;28;20036;-40
2022/05/18 02:14:22;;;;;;;5.90;5.30;;;18.90;99.90;;;;;;5046205;28;20468;-40
2022/05/18 02:16:48;;;;;;;5.15;4.43;;;18.80;99.90;;;;;;5045808;28;20028;-42
2022/05/18 02:19:14;;;;;;;6.28;4.55;;;18.80;99.90;;;;;;5046121;28;20044;-40
2022/05/18 02:21:40;;;;;;;5.32;4.25;;;18.80;99.90;;;;;;5045988;28;20047;-39
2022/05/18 02:24:06;;;;;;;6.18;4.07;;;18.80;99.90;;;;;;5046110;28;20029;-40
2022/05/18 02:26:31;;;;;;;6.15;4.80;;;18.70;99.90;;;;;;5046069;28;20029;-42
2022/05/18 02:28:57;;;;;;;6.43;5.05;;;18.70;99.90;;;;;;5046440;28;20021;-41
2022/05/18 02:31:22;;;;;;;7.10;4.55;;;18.70;99.90;;;;;;5046089;28;20083;-40
2022/05/18 02:33:48;;;;;;;4.95;4.45;;;18.70;99.90;;;;;;5046087;28;20358;-41
2022/05/18 02:36:13;;;;;;;7.22;4.55;;;18.70;99.90;;;;;;5045989;28;20128;-41
2022/05/18 02:38:40;;;;;;;7.13;4.80;;;18.60;99.90;;;;;;5045202;28;20037;-41
2022/05/18 02:41:07;;;;;;;7.50;4.70;;;18.60;99.90;;;;;;5046442;28;20136;-38
2022/05/18 02:43:37;;;;;;;6.53;4.93;;;18.60;99.90;;;;;;5044442;28;20507;-40
2022/05/18 02:46:23;;;;;;;7.65;4.55;;;18.60;99.90;;;;;;5046332;28;20025;-42
2022/05/18 02:48:51;;;;;;;6.22;5.13;;;18.60;99.90;;;;;;5045501;28;20047;-39
2022/05/18 02:51:17;;;;;;;5.43;4.50;;;18.60;99.90;;;;;;5045184;28;20052;-41
2022/05/18 02:53:43;;;;;;;4.65;4.20;;;18.50;99.90;;;;;;5045376;28;20108;-41
2022/05/18 02:56:13;;;;;;;6.22;4.55;;;18.50;99.90;;;;;;5046038;28;20033;-42
2022/05/18 02:58:44;;;;;;;5.25;4.75;;;18.50;99.90;;;;;;5044256;28;20029;-42
2022/05/18 03:01:16;;;;;;;4.50;4.03;;;18.50;99.90;;;;;;5045722;28;20192;-41
2022/05/18 03:03:41;;;;;;;5.83;4.07;;;18.40;99.90;;;;;;5045852;28;20028;-42
2022/05/18 03:06:09;;;;;;;4.68;4.07;;;18.40;99.90;;;;;;5045162;28;20048;-38
2022/05/18 03:08:38;;;;;;;5.38;4.32;;;18.40;99.90;;;;;;5045399;28;20021;-40
2022/05/18 03:11:04;;;;;;;6.35;4.97;;;18.40;99.90;;;;;;5045708;28;20484;-38
2022/05/18 03:13:30;;;;;;;6.38;4.43;;;18.40;99.90;;;;;;5044345;28;20035;-41
2022/05/18 03:15:56;;;;;;;7.57;4.60;;;18.40;99.90;;;;;;5046133;28;20025;-39
2022/05/18 03:18:22;;;;;;;7.22;4.53;;;18.30;99.90;;;;;;5045502;28;20052;-42
2022/05/18 03:23:35;;;;;;;5.72;4.35;;;18.30;99.90;;;;;;5045037;28;20079;-43
2022/05/18 03:26:16;;;;;;;6.13;4.40;;;18.30;99.90;;;;;;5045045;28;20028;-39
2022/05/18 03:28:46;;;;;;;6.70;4.00;;;18.30;99.90;;;;;;5045300;28;20078;-40
2022/05/18 03:31:13;;;;;;;6.07;4.15;;;18.30;99.90;;;;;;5045845;28;20136;-42
2022/05/18 03:33:38;;;;;;;4.55;4.05;;;18.30;99.90;;;;;;5043847;28;20047;-41
2022/05/18 03:36:07;;;;;;;6.38;4.30;;;18.30;99.90;;;;;;5046010;28;20532;-41
2022/05/18 03:38:34;;;;;;;6.82;4.68;;;18.30;99.90;;;;;;5044574;28;20082;-39
2022/05/18 03:40:59;;;;;;;4.50;4.10;;;18.30;99.90;;;;;;5046088;28;20035;-40
2022/05/18 03:43:25;;;;;;;5.88;4.20;;;18.30;99.90;;;;;;5049088;28;20025;-41
2022/05/18 03:45:50;;;;;;;6.28;4.60;;;18.30;99.90;;;;;;5049243;28;20051;-42
2022/05/18 03:48:17;;;;;;;5.72;4.20;;;18.30;99.90;;;;;;5048660;28;20559;-37
2022/05/18 03:50:46;;;;;;;4.45;4.05;;;18.30;99.90;;;;;;5049187;28;20407;-42
2022/05/18 03:53:13;;;;;;;5.60;3.85;;;18.30;99.90;;;;;;5049897;28;20028;-40
2022/05/18 03:55:41;;;;;;;7.03;4.32;;;18.30;99.90;;;;;;5048598;28;20446;-41
2022/05/18 03:58:07;;;;;;;5.78;4.28;;;18.30;99.90;;;;;;5029457;28;20470;-41
2022/05/18 04:00:33;;;;;;;5.70;4.20;;;18.30;99.90;;;;;;5042889;28;20074;-42
2022/05/18 04:03:00;;;;;;;5.63;4.10;;;18.30;99.90;;;;;;5048651;28;20110;-41
2022/05/18 04:05:26;;;;;;;5.65;4.10;;;18.30;99.90;;;;;;5049047;28;20020;-40
2022/05/18 04:07:52;;;;;;;4.63;4.15;;;18.30;99.90;;;;;;5048671;28;20029;-42
2022/05/18 04:10:18;;;;;;;4.53;3.97;;;18.30;99.90;;;;;;5048621;28;20028;-42
2022/05/18 04:12:44;;;;;;;5.90;4.40;;;18.40;99.90;;;;;;5049374;28;20203;-42
2022/05/18 04:15:13;;;;;;;6.05;4.43;;;18.40;99.90;;;;;;5048325;28;20013;-42
2022/05/18 04:17:38;;;;;;;8.02;4.25;;;18.40;99.90;;;;;;5048742;28;20049;-41
2022/05/18 04:20:05;;;;;;;4.95;4.45;;;18.40;99.90;;;;;;5049041;28;20078;-39
2022/05/18 04:22:32;;;;;;;4.88;4.03;;;18.40;99.90;;;;;;5047271;28;20087;-41
2022/05/18 04:25:01;;;;;;;5.28;4.00;;;18.40;99.90;;;;;;5048436;28;20658;-41
2022/05/18 04:27:28;;;;;;;6.30;4.43;;;18.40;99.90;;;;;;5048449;28;20112;-40
2022/05/18 04:29:54;;;;;;;4.28;3.80;;;18.40;99.90;;;;;;5047822;28;20120;-42
2022/05/18 04:32:21;;;;;;;4.75;4.05;;;18.40;99.90;;;;;;5047121;28;20112;-43
2022/05/18 04:34:48;;;;;;;5.93;3.97;;;18.40;99.90;;;;;;5048542;28;20118;-41
2022/05/18 04:37:14;;;;;;;11.88;4.35;;;18.40;99.90;;;;;;5047435;28;20596;-39
2022/05/18 04:39:40;;;;;;;5.18;3.78;;;18.40;99.90;;;;;;5048258;28;20017;-40
2022/05/18 04:42:05;;;;;;;5.35;3.90;;;18.40;99.90;;;;;;5048544;28;20047;-41
2022/05/18 04:44:31;;;;;;;4.32;3.90;;;18.50;99.90;;;;;;5047229;28;20468;-41
2022/05/18 04:46:58;;;;;;;4.82;3.42;;;18.50;99.90;;;;;;5048013;28;20032;-42
2022/05/18 04:49:24;;;;;;;4.90;3.50;;;18.60;99.90;;;;;;5048476;28;20362;-41
2022/05/18 04:51:50;;;;;;;3.70;3.40;;;18.70;99.90;;;;;;5047198;28;20378;-42
2022/05/18 04:54:15;;;;;;;5.05;3.33;;;18.80;99.90;;;;;;5047851;28;20036;-41
2022/05/18 04:56:41;;;;;;;3.45;3.10;;;18.90;99.90;;;;;;5048230;28;20143;-41
2022/05/18 04:59:07;;;;;;;3.50;3.20;;;18.90;99.90;;;;;;5047440;28;20045;-41
2022/05/18 05:01:34;;;;;;;4.90;3.40;;;19.00;99.90;;;;;;5048152;28;20037;-40
2022/05/18 05:04:00;;;;;;;3.67;3.20;;;19.00;99.90;;;;;;5037691;28;20025;-40
2022/05/18 05:06:26;;;;;;;4.78;3.22;;;19.00;99.90;;;;;;5046722;28;20017;-41
2022/05/18 05:08:52;;;;;;;3.83;3.33;;;19.00;99.90;;;;;;5048817;28;20479;-41
2022/05/18 05:11:18;;;;;;;4.28;3.33;;;19.00;99.90;;;;;;5047251;28;20025;-40
2022/05/18 05:13:44;;;;;;;4.93;3.30;;;19.00;99.90;;;;;;5048124;28;20770;-41
2022/05/18 05:16:11;;;;;;;6.03;3.42;;;18.90;99.90;;;;;;5048187;28;20043;-42
2022/05/18 05:18:37;;;;;;;5.30;3.83;;;19.00;99.90;;;;;;5046558;28;20115;-41
2022/05/18 05:21:03;;;;;;;5.80;3.47;;;19.00;99.90;;;;;;5048030;28;20025;-41
2022/05/18 05:23:29;;;;;;;4.53;3.55;;;19.00;99.90;;;;;;5046963;28;20029;-41
2022/05/18 05:25:56;;;;;;;4.25;3.60;;;18.90;99.90;;;;;;5047754;28;20104;-40
2022/05/18 05:28:22;;;;;;;4.85;3.60;;;19.00;99.90;;;;;;5047810;28;20021;-39
2022/05/18 05:30:48;;;;;;;4.50;3.50;;;19.00;99.90;;;;;;5047505;28;20473;-41
2022/05/18 05:33:14;;;;;;;5.00;3.45;;;19.00;99.90;;;;;;5046948;28;20506;-41
2022/05/18 05:35:42;;;;;;;5.05;3.72;;;19.10;99.90;;;;;;5047040;28;20544;-42
2022/05/18 05:38:12;;;;;;;4.10;3.20;;;19.10;99.90;;;;;;5047591;28;20127;-41
2022/05/18 05:40:38;;;;;;;3.58;3.28;;;19.10;99.90;;;;;;5046476;28;20366;-41
2022/05/18 05:43:08;;;;;;;4.10;3.15;;;19.20;99.90;;;;;;5047633;28;20036;-41
2022/05/18 05:45:34;;;;;;;5.78;3.55;;;19.20;99.90;;;;;;5047396;28;20666;-42
2022/05/18 05:48:01;;;;;;;3.50;3.20;;;19.30;99.90;;;;;;5043751;28;20028;-42
2022/05/18 05:50:27;;;;;;;5.00;3.47;;;19.30;99.90;;;;;;5045672;28;20075;-42
2022/05/18 05:52:52;;;;;;;6.97;3.63;;;19.40;99.90;;;;;;5046464;28;20565;-42
2022/05/18 05:55:18;;;;;;;3.40;3.10;;;19.40;99.90;;;;;;5045798;28;20013;-41
2022/05/18 05:57:44;;;;;;;3.80;3.40;;;19.40;99.90;;;;;;5046741;28;20037;-41
2022/05/18 06:00:10;;;;;;;4.03;3.20;;;19.50;99.90;;;;;;5045564;28;20037;-41
2022/05/18 06:02:35;;;;;;;3.90;3.45;;;19.50;99.90;;;;;;5044524;28;20037;-42
2022/05/18 06:05:03;;;;;;;4.07;3.40;;;19.60;99.90;;;;;;5045577;28;20056;-42
2022/05/18 06:07:30;;;;;;;3.65;3.20;;;19.70;99.90;;;;;;5045206;28;20100;-41
2022/05/18 06:09:55;;;;;;;3.20;2.90;;;19.90;99.90;;;;;;5046177;28;20063;-40
2022/05/18 06:12:22;;;;;;;6.30;3.47;;;20.00;99.90;;;;;;5045387;28;20047;-42
2022/05/18 06:14:48;;;;;;;2.72;2.45;;;20.20;99.90;;;;;;5045513;28;20025;-41
2022/05/18 06:17:14;;;;;;;3.08;2.70;;;20.40;99.90;;;;;;5044981;28;20586;-40
2022/05/18 06:19:40;;;;;;;5.53;3.35;;;20.60;99.90;;;;;;5045616;28;20029;-41
2022/05/18 06:22:06;;;;;;;4.00;2.92;;;20.80;99.90;;;;;;5045270;28;20119;-42
2022/05/18 06:24:32;;;;;;;3.63;2.85;;;20.90;99.90;;;;;;5044757;28;20108;-40
2022/05/18 06:26:58;;;;;;;4.10;3.35;;;20.90;99.80;;;;;;5045544;28;20080;-40
2022/05/18 06:29:24;;;;;;;6.20;3.58;;;21.00;99.70;;;;;;5044337;28;20033;-42
2022/05/18 06:31:50;;;;;;;3.35;3.05;;;21.10;99.60;;;;;;5045354;28;20036;-41
2022/05/18 06:34:16;;;;;;;3.58;3.08;;;21.00;99.60;;;;;;5045554;28;20036;-40
2022/05/18 06:36:42;;;;;;;5.25;3.47;;;21.10;99.60;;;;;;5044633;28;20498;-42
2022/05/18 06:39:08;;;;;;;3.83;3.22;;;21.10;99.60;;;;;;5045522;28;20033;-41
2022/05/18 06:41:35;;;;;;;5.03;3.70;;;21.20;99.50;;;;;;5044319;28;20117;-41
2022/05/18 06:44:02;;;;;;;5.80;3.47;;;21.20;99.40;;;;;;5045490;28;20044;-41
2022/05/18 06:46:30;;;;;;;5.07;4.00;;;21.20;99.40;;;;;;5044115;28;20473;-42
2022/05/18 06:48:56;;;;;;;3.60;3.30;;;21.30;99.20;;;;;;5046294;28;20324;-43
2022/05/18 06:51:28;;;;;;;5.50;3.60;;;21.50;99.10;;;;;;5044805;28;20032;-41
2022/05/18 06:53:54;;;;;;;4.40;3.65;;;21.60;98.80;;;;;;5046686;28;20044;-41
2022/05/18 06:56:21;;;;;;;5.43;4.70;;;21.80;98.60;;;;;;5045669;28;20469;-42
2022/05/18 06:58:48;;;;;;;4.03;3.63;;;21.90;98.00;;;;;;5045182;28;20021;-42
2022/05/18 07:01:14;;;;;;;3.72;2.95;;;22.00;97.90;;;;;;5045608;28;20055;-41
2022/05/18 07:03:40;;;;;;;3.40;3.00;;;22.10;97.80;;;;;;5045048;28;20032;-40
2022/05/18 07:06:06;;;;;;;3.90;3.45;;;22.20;97.60;;;;;;5045470;28;20025;-41
2022/05/18 07:08:31;;;;;;;4.35;3.45;;;22.30;97.50;;;;;;5046131;28;20018;-42
2022/05/18 07:10:57;;;;;;;3.92;2.97;;;22.30;97.20;;;;;;5045241;28;20052;-44
2022/05/18 07:13:23;;;;;;;5.32;3.55;;;22.40;97.30;;;;;;5046060;28;20024;-40
2022/05/18 07:15:48;;;;;;;3.72;3.42;;;22.40;97.30;;;;;;5044506;28;20024;-39
2022/05/18 07:18:15;;;;;;;4.90;4.25;;;22.50;97.20;;;;;;5044929;28;20122;-41
2022/05/18 07:20:41;;;;;;;4.47;3.92;;;22.60;97.10;;;;;;5046064;28;20500;-42
2022/05/18 07:23:07;;;;;;;5.03;4.07;;;22.60;96.90;;;;;;5045604;28;20029;-42
2022/05/18 07:25:35;;;;;;;4.82;3.90;;;22.70;96.80;;;;;;5044529;28;20385;-41
2022/05/18 07:28:01;;;;;;;3.42;3.13;;;22.70;96.80;;;;;;5045760;28;20533;-39
2022/05/18 07:30:27;;;;;;;3.42;3.13;;;22.70;96.70;;;;;;5044890;28;20524;-36
2022/05/18 07:32:52;;;;;;;3.70;3.40;;;22.80;96.60;;;;;;5044913;28;20056;-41
2022/05/18 07:35:18;;;;;;;3.88;3.58;;;22.80;96.60;;;;;;5045831;28;20033;-40
2022/05/18 07:37:43;;;;;;;4.80;4.18;;;22.90;96.60;;;;;;5043280;28;20032;-41
2022/05/18 07:40:09;;;;;;;5.20;4.70;;;23.00;96.50;;;;;;5045082;28;20025;-42
2022/05/18 07:42:35;;;;;;;5.80;4.75;;;23.00;96.40;;;;;;5044980;28;20159;-39
2022/05/18 07:45:01;;;;;;;4.80;4.40;;;23.00;96.20;;;;;;5046255;28;20454;-40
2022/05/18 07:47:30;;;;;;;5.97;4.45;;;23.00;96.20;;;;;;5044257;28;20037;-40
2022/05/18 07:49:56;;;;;;;6.20;4.80;;;23.00;96.20;;;;;;5045509;28;20372;-42
2022/05/18 07:52:21;;;;;;;4.25;3.85;;;23.00;96.20;;;;;;5045439;28;20095;-41
2022/05/18 07:54:47;;;;;;;7.28;4.40;;;23.00;96.20;;;;;;5045017;28;20018;-42
2022/05/18 07:57:15;;;;;;;4.85;4.20;;;23.00;96.20;;;;;;5045123;28;20025;-42
2022/05/18 07:59:41;;;;;;;13.35;5.20;;;22.90;96.20;;;;;;5044654;28;20072;-41
2022/05/18 08:02:07;;;;;;;6.05;4.53;;;22.80;96.20;;;;;;5044881;28;20103;-41
2022/05/18 08:04:32;;;;;;;8.82;5.43;;;22.80;96.20;;;;;;5045222;28;20460;-42
2022/05/18 08:06:58;;;;;;;5.25;4.75;;;22.70;95.90;;;;;;5045198;28;20485;-40
2022/05/18 08:09:24;;;;;;;5.07;4.45;;;22.70;96.00;;;;;;5045009;28;20094;-40
2022/05/18 08:17:20;;;;;;;6.47;4.50;;;22.60;95.90;;;;;;5044616;28;20047;-43
2022/05/18 08:19:46;;;;;;;5.43;4.93;;;22.60;95.90;;;;;;5044121;28;20037;-40
2022/05/18 08:22:13;;;;;;;5.50;4.70;;;22.60;95.90;;;;;;5044580;28;20025;-39
2022/05/18 08:24:39;;;;;;;7.15;5.47;;;22.60;95.90;;;;;;5044430;28;20060;-42
2022/05/18 08:27:06;;;;;;;8.63;7.53;;;22.60;96.00;;;;;;5046352;28;20039;-42
2022/05/18 08:29:32;;;;;;;6.93;6.22;;;22.60;96.00;;;;;;5047323;28;20492;-43
2022/05/18 08:31:58;;;;;;;6.72;5.97;;;22.60;95.90;;;;;;5048846;28;20037;-40
2022/05/18 08:34:23;;;;;;;6.05;5.43;;;22.60;96.00;;;;;;5048659;28;20027;-41
2022/05/18 08:36:49;;;;;;;7.72;6.28;;;22.60;96.00;;;;;;5046174;28;20062;-41
2022/05/18 08:39:15;;;;;;;10.32;6.53;;;22.60;96.00;;;;;;5046045;28;20033;-41
2022/05/18 08:41:46;;;;;;;5.60;4.93;;;22.70;96.00;;;;;;5048464;28;20479;-41
2022/05/18 08:44:24;;;;;;;6.25;5.00;;;22.70;96.00;;;;;;5047315;28;20107;-41
2022/05/18 08:47:16;;;;;;;6.22;5.18;;;22.80;96.00;;;;;;5048190;28;20590;-43
2022/05/18 08:49:53;;;;;;;7.63;5.80;;;22.80;95.90;;;;;;5047384;28;20025;-42
2022/05/18 08:52:32;;;;;;;5.13;4.63;;;22.80;95.90;;;;;;5047935;28;20466;-44
2022/05/18 08:55:30;;;;;;;5.57;5.05;;;22.90;95.90;;;;;;5048118;28;20377;-41
2022/05/18 08:57:58;;;;;;;5.80;5.30;;;22.90;95.90;;;;;;5047466;28;20041;-41
2022/05/18 09:00:35;;;;;;;5.30;4.85;;;22.90;95.90;;;;;;5047777;28;20103;-42
2022/05/18 09:03:03;;;;;;;5.07;4.55;;;22.90;95.90;;;;;;5048783;28;20040;-42
2022/05/18 09:05:56;;;;;;;6.15;4.45;;;23.00;95.90;;;;;;5047131;28;20060;-43
2022/05/18 09:08:33;;;;;;;7.45;6.35;;;23.10;95.90;;;;;;5047805;28;20024;-43
2022/05/18 09:11:15;;;;;;;5.45;4.95;;;23.10;95.80;;;;;;5047630;28;20407;-42
2022/05/18 09:13:41;;;;;;;;;;;23.10;95.80;;;;;;5028657;28;20030;-42
2022/05/18 09:16:34;;;;;;;6.53;5.47;;;23.10;95.80;;;;;;5041710;28;19908;-42
2022/05/18 09:19:11;;;;;;;5.93;4.85;;;23.20;95.80;;;;;;5047789;28;20041;-40
2022/05/18 09:21:55;;;;;;;7.03;6.32;;;23.30;95.80;;;;;;5047025;28;20043;-42
2022/05/18 09:24:38;;;;;;;7.35;6.60;;;23.30;95.80;;;;;;5046795;28;20501;-40
2022/05/18 09:27:21;;;;;;;6.80;6.05;;;23.40;95.70;;;;;;5047450;28;20074;-41
2022/05/18 09:30:00;;;;;;;7.43;6.68;;;23.50;95.70;;;;;;5047937;28;20035;-42
2022/05/18 09:32:59;;;;;;;6.97;5.60;;;23.50;95.70;;;;;;5046414;28;20028;-43
2022/05/18 09:36:00;;;;;;;5.90;4.55;;;23.50;95.70;;;;;;5047479;28;20029;-41
2022/05/18 09:38:39;;;;;;;4.13;3.60;;;23.60;95.70;;;;;;5036837;28;20048;-41
2022/05/18 09:41:10;;;;;;;7.43;4.93;;;23.70;95.70;;;;;;5047361;28;20035;-42
2022/05/18 09:44:10;;;;;;;5.97;5.28;;;23.70;95.70;;;;;;5047142;28;20041;-42
2022/05/18 09:46:46;;;;;;;5.25;4.75;;;23.90;95.80;;;;;;5045832;28;20029;-42
2022/05/18 09:49:27;;;;;;;6.75;6.03;;;23.90;95.60;;;;;;5046415;28;20385;-41
2022/05/18 09:51:54;;;;;;;6.00;5.40;;;24.10;95.60;;;;;;5045775;28;20056;-42
2022/05/18 09:54:20;;;;;;;5.75;5.20;;;24.20;95.60;;;;;;5045335;28;20138;-42
2022/05/18 09:57:20;;;;;;;4.97;4.47;;;24.30;95.50;;;;;;5045979;28;20055;-40
2022/05/18 09:59:54;;;;;;;5.93;5.13;;;24.40;95.30;;;;;;5046272;28;20064;-42
2022/05/18 10:07:54;;;;;;;5.78;4.63;;;24.70;95.10;;;;;;5046208;28;20051;-42
2022/05/18 10:10:19;;;;;;;5.90;4.95;;;24.80;95.10;;;;;;5046978;28;20764;-42
2022/05/18 10:13:06;;;;;;;6.32;4.18;;;24.80;95.10;;;;;;5046512;28;20036;-42
2022/05/18 10:15:47;;;;;;;3.15;2.85;;;24.90;95.00;;;;;;5045956;28;20047;-43
2022/05/18 10:18:34;;;;;;;6.30;4.13;;;24.90;94.90;;;;;;5046578;28;20033;-45
2022/05/18 10:21:24;;;;;;;5.90;3.42;;;24.90;94.80;;;;;;5026212;28;20040;-43
2022/05/18 10:23:52;;;;;;;3.95;3.45;;;25.00;94.90;;;;;;5006106;28;20049;-42
2022/05/18 10:26:27;;;;;;;5.88;4.55;;;25.00;94.50;;;;;;5047268;28;20037;-40
2022/05/18 10:28:59;;;;;;;6.13;4.50;;;25.00;94.40;;;;;;5045805;28;20033;-42
2022/05/18 10:31:41;;;;;;;5.93;4.72;;;25.00;94.40;;;;;;5046276;28;20039;-43
2022/05/18 10:34:14;;;;;;;5.95;4.30;;;25.00;94.50;;;;;;5047023;28;20017;-41
2022/05/18 10:36:46;;;;;;;5.22;4.55;;;25.00;94.40;;;;;;5026724;28;20091;-41
2022/05/18 10:39:30;;;;;;;3.70;3.25;;;25.00;94.40;;;;;;5043753;28;20064;-43
2022/05/18 10:41:56;;;;;;;4.68;4.13;;;25.00;94.40;;;;;;5045234;28;20043;-42
2022/05/18 10:44:27;;;;;;;9.00;5.20;;;25.10;94.30;;;;;;5046447;28;20033;-42
2022/05/18 10:46:53;;;;;;;5.07;3.97;;;25.20;94.30;;;;;;5046438;28;20507;-43
2022/05/18 10:49:26;;;;;;;5.57;4.25;;;25.30;94.20;;;;;;5044092;28;20021;-40
2022/05/18 10:51:51;;;;;;;5.45;3.50;;;25.40;94.10;;;;;;5046471;28;20056;-42
2022/05/18 10:54:23;;;;;;;4.75;3.28;;;25.50;94.00;;;;;;5045818;28;20079;-40
2022/05/18 10:56:50;;;;;;;3.60;3.30;;;25.50;93.90;;;;;;5045149;28;20579;-42
2022/05/18 10:59:25;;;;;;;7.13;4.50;;;25.50;93.80;;;;;;5045283;28;20053;-42
2022/05/18 11:01:58;;;;;;;5.57;4.05;;;25.60;93.80;;;;;;5046806;28;20125;-42
2022/05/18 11:04:49;;;;;;;4.00;3.60;;;25.60;94.00;;;;;;5045111;28;20095;-42
2022/05/18 11:07:14;;;;;;;3.80;3.40;;;25.60;93.70;;;;;;5045710;28;20570;-42
2022/05/18 11:09:41;;;;;;;3.95;3.40;;;25.60;93.60;;;;;;5045391;28;20127;-41
2022/05/18 11:12:20;;;;;;;5.03;3.42;;;25.70;93.30;;;;;;5045592;28;20021;-41
2022/05/18 11:15:00;;;;;;;4.00;3.25;;;25.80;93.20;;;;;;5045806;28;20085;-41
2022/05/18 11:17:48;;;;;;;3.22;2.65;;;25.90;93.00;;;;;;5044472;28;20425;-41
2022/05/18 11:20:33;;;;;;;4.80;3.40;;;26.00;92.70;;;;;;5045371;28;20029;-40
2022/05/18 11:23:16;;;;;;;4.93;3.47;;;26.20;92.60;;;;;;5025603;28;20512;-41
2022/05/18 11:25:56;;;;;;;2.75;2.53;;;26.30;92.50;;;;;;5041379;28;20041;-42
2022/05/18 11:28:59;;;;;;;4.93;3.38;;;26.30;92.60;;;;;;5045736;28;20105;-42
2022/05/18 11:31:44;;;;;;;4.00;3.00;;;26.40;92.60;;;;;;5043871;28;20485;-41
2022/05/18 11:34:31;;;;;;;6.82;4.18;;;26.50;92.60;;;;;;5045581;28;20148;-42
2022/05/18 11:37:17;;;;;;;3.10;2.60;;;26.40;92.30;;;;;;5044706;28;20025;-42
2022/05/18 11:39:54;;;;;;;4.68;3.50;;;26.40;92.30;;;;;;5029750;28;20029;-43
2022/05/18 11:42:20;;;;;;;6.18;2.65;;;26.30;92.20;;;;;;5034415;28;20195;-43
2022/05/18 11:44:55;;;;;;;3.60;2.78;;;26.30;92.30;;;;;;5045371;28;20464;-41
2022/05/18 11:47:40;;;;;;;3.03;2.72;;;26.30;92.40;;;;;;5044974;28;20090;-40
2022/05/18 11:50:36;;;;;;;2.70;2.50;;;26.30;92.40;;;;;;5045341;28;20035;-42
2022/05/18 11:53:34;;;;;;;3.40;2.90;;;26.50;92.20;;;;;;5037100;28;20040;-42
2022/05/18 11:56:26;;;;;;;5.00;2.30;;;26.70;92.10;;;;;;5045652;28;20021;-43
2022/05/18 12:02:55;;;;;;;6.28;3.40;;;27.10;91.90;;;;;;5043333;28;20048;-42
2022/05/18 12:05:46;;;;;;;3.08;2.63;;;27.20;91.40;;;;;;5014021;28;20575;-42
2022/05/18 12:08:48;;;;;;;3.15;2.50;;;27.20;91.40;;;;;;5030433;28;20040;-43
2022/05/18 12:11:49;;;;;;;3.70;2.80;;;27.20;91.30;;;;;;5048227;28;20060;-43
2022/05/18 12:14:25;;;;;;;3.17;2.30;;;27.10;91.20;;;;;;5046978;28;20052;-42
2022/05/18 12:17:15;;;;;;;4.55;2.95;;;27.00;91.30;;;;;;5048370;28;20064;-43
2022/05/18 12:20:05;;;;;;;3.70;2.45;;;27.00;91.20;;;;;;5048435;28;20025;-42
2022/05/18 12:22:45;;;;;;;2.95;2.20;;;27.00;91.10;;;;;;5047235;28;20041;-43
2022/05/18 12:25:15;;;;;;;2.10;1.90;;;27.10;91.00;;;;;;5029653;28;20029;-42
2022/05/18 12:27:41;;;;;;;2.80;1.90;;;27.30;90.70;;;;;;5043323;28;20029;-42
2022/05/18 12:30:10;;;;;;;3.25;1.60;;;27.40;90.40;;;;;;5048135;28;20354;-42
2022/05/18 12:32:36;;;;;;;1.88;1.70;;;27.50;90.30;;;;;;5047317;28;20029;-41
2022/05/18 12:35:11;;;;;;;3.13;1.77;;;27.60;90.20;;;;;;5047886;28;20025;-43
2022/05/18 12:37:52;;;;;;;2.97;2.10;;;27.70;90.00;;;;;;5047359;28;20031;-42
2022/05/18 12:40:29;;;;;;;3.30;1.83;;;27.70;89.10;;;;;;5047417;28;20476;-42
2022/05/18 12:43:11;;;;;;;2.67;1.80;;;27.70;89.30;;;;;;5046572;28;20456;-42
2022/05/18 12:45:42;;;;;;;3.45;1.98;;;27.70;89.10;;;;;;5047138;28;20555;-43
2022/05/18 12:48:25;;;;;;;3.08;1.67;;;27.70;89.00;;;;;;5048293;28;20424;-42
2022/05/18 12:51:31;;;;;;;2.92;1.95;;;27.80;89.10;;;;;;5048856;28;20056;-43
2022/05/18 12:54:20;;;;;;;2.08;1.88;;;27.80;88.80;;;;;;5048315;28;20105;-41
2022/05/18 12:57:09;;;;;;;2.78;1.95;;;27.70;88.90;;;;;;5047655;28;20048;-41
2022/05/18 12:59:54;;;;;;;3.08;2.00;;;27.70;89.00;;;;;;5044981;28;20132;-43
2022/05/18 13:02:35;;;;;;;2.45;2.08;;;27.70;89.20;;;;;;5047195;28;20047;-41
2022/05/18 13:05:08;;;;;;;4.18;2.85;;;27.80;88.90;;;;;;5048034;28;20064;-41
2022/05/18 13:07:36;;;;;;;3.65;2.50;;;27.90;88.20;;;;;;5047151;28;20017;-43
2022/05/18 13:10:17;;;;;;;3.92;2.22;;;27.80;88.20;;;;;;5047844;28;20017;-44
2022/05/18 13:12:47;;;;;;;2.22;1.63;;;27.90;88.50;;;;;;5046906;28;20090;-41
2022/05/18 13:15:25;;;;;;;1.38;1.27;;;28.00;88.50;;;;;;5047541;28;20048;-43
2022/05/18 13:18:03;;;;;;;5.60;3.45;;;28.00;88.40;;;;;;5047096;28;20403;-43
2022/05/18 13:21:04;;;;;;;3.20;2.40;;;28.00;87.70;;;;;;5046965;28;20036;-41
2022/05/18 13:23:31;;;;;;;3.13;2.10;;;28.10;87.70;;;;;;5046495;28;20044;-41
2022/05/18 13:26:11;;;;;;;4.43;2.38;;;28.00;87.80;;;;;;5048033;28;20033;-42